sensor_id;sensor_type;location;lat;lon;timestamp;pressure;altitude;pressure_sealevel;temperature;humidity
47753;BME280;2038;51.728;6.674;2023-05-16T00:00:57;101043.97;;;12.07;100.00
47753;BME280;2038;51.728;6.674;2023-05-16T00:03:23;101046.31;;;12.04;100.00
47753;BME280;2038;51.728;6.674;2023-05-16T00:05:49;101055.75;;;12.05;100.00
47753;BME280;2038;51.728;6.674;2023-05-16T00:08:16;101049.88;;;12.06;100.00
47753;BME280;2038;51.728;6.674;2023-05-16T00:10:43;101054.56;;;12.00;100.00
47753;BME280;2038;51.728;6.674;2023-05-16T00:13:09;101059.09;;;11.91;100.00
47753;BME280;2038;51.728;6.674;2023-05-16T00:15:36;101058.09;;;11.89;100.00
47753;BME280;2038;51.728;6.674;2023-05-16T00:18:03;101059.59;;;11.86;100.00
47753;BME280;2038;51.728;6.674;2023-05-16T00:20:29;101060.28;;;11.83;100.00
47753;BME280;2038;51.728;6.674;2023-05-16T00:22:56;101061.06;;;11.82;100.00
47753;BME280;2038;51.728;6.674;2023-05-16T00:25:26;101064.56;;;11.84;100.00
47753;BME280;2038;51.728;6.674;2023-05-16T00:27:53;101068.78;;;11.84;100.00
47753;BME280;2038;51.728;6.674;2023-05-16T00:30:19;101066.47;;;11.87;100.00
47753;BME280;2038;51.728;6.674;2023-05-16T00:32:45;101063.91;;;11.87;100.00
47753;BME280;2038;51.728;6.674;2023-05-16T00:35:12;101068.59;;;11.81;100.00
47753;BME280;2038;51.728;6.674;2023-05-16T00:37:38;101060.44;;;11.73;100.00
47753;BME280;2038;51.728;6.674;2023-05-16T00:40:05;101065.50;;;11.60;100.00
47753;BME280;2038;51.728;6.674;2023-05-16T00:42:32;101068.94;;;11.60;100.00
47753;BME280;2038;51.728;6.674;2023-05-16T00:44:58;101070.81;;;11.63;100.00
47753;BME280;2038;51.728;6.674;2023-05-16T00:47:25;101067.97;;;11.58;100.00
47753;BME280;2038;51.728;6.674;2023-05-16T00:49:51;101075.50;;;11.57;100.00
47753;BME280;2038;51.728;6.674;2023-05-16T00:52:18;101072.88;;;11.55;100.00
47753;BME280;2038;51.728;6.674;2023-05-16T00:54:44;101073.06;;;11.58;100.00
47753;BME280;2038;51.728;6.674;2023-05-16T00:57:11;101078.47;;;11.63;100.00
47753;BME280;2038;51.728;6.674;2023-05-16T00:59:37;101078.16;;;11.58;100.00
47753;BME280;2038;51.728;6.674;2023-05-16T01:02:05;101080.41;;;11.54;100.00
47753;BME280;2038;51.728;6.674;2023-05-16T01:04:33;101078.94;;;11.57;100.00
47753;BME280;2038;51.728;6.674;2023-05-16T01:07:01;101074.16;;;11.62;100.00
47753;BME280;2038;51.728;6.674;2023-05-16T01:09:28;101080.72;;;11.58;100.00
47753;BME280;2038;51.728;6.674;2023-05-16T01:15:08;101080.22;;;11.51;100.00
47753;BME280;2038;51.728;6.674;2023-05-16T01:26:20;101082.47;;;11.46;100.00
47753;BME280;2038;51.728;6.674;2023-05-16T01:28:50;101096.00;;;11.45;100.00
47753;BME280;2038;51.728;6.674;2023-05-16T01:31:18;101087.25;;;11.42;100.00
47753;BME280;2038;51.728;6.674;2023-05-16T01:33:49;101089.69;;;11.40;100.00
47753;BME280;2038;51.728;6.674;2023-05-16T01:36:39;101094.22;;;11.44;100.00
47753;BME280;2038;51.728;6.674;2023-05-16T01:42:12;101108.63;;;11.44;100.00
47753;BME280;2038;51.728;6.674;2023-05-16T01:44:49;101097.25;;;11.39;100.00
47753;BME280;2038;51.728;6.674;2023-05-16T01:47:25;101109.22;;;11.40;100.00
47753;BME280;2038;51.728;6.674;2023-05-16T01:50:07;101104.69;;;11.36;100.00
47753;BME280;2038;51.728;6.674;2023-05-16T01:55:42;101109.72;;;11.34;100.00
47753;BME280;2038;51.728;6.674;2023-05-16T01:58:11;101119.03;;;11.34;100.00
47753;BME280;2038;51.728;6.674;2023-05-16T02:00:40;101118.72;;;11.29;100.00
47753;BME280;2038;51.728;6.674;2023-05-16T02:03:07;101123.41;;;11.23;100.00
47753;BME280;2038;51.728;6.674;2023-05-16T02:05:34;101115.63;;;11.21;100.00
47753;BME280;2038;51.728;6.674;2023-05-16T02:08:00;101120.63;;;11.20;100.00
47753;BME280;2038;51.728;6.674;2023-05-16T02:10:27;101126.22;;;11.14;100.00
47753;BME280;2038;51.728;6.674;2023-05-16T02:12:53;101125.97;;;11.11;100.00
47753;BME280;2038;51.728;6.674;2023-05-16T02:15:19;101138.53;;;11.08;100.00
47753;BME280;2038;51.728;6.674;2023-05-16T02:17:46;101136.34;;;11.01;100.00
47753;BME280;2038;51.728;6.674;2023-05-16T02:20:13;101140.47;;;10.99;100.00
47753;BME280;2038;51.728;6.674;2023-05-16T02:22:39;101137.66;;;10.96;100.00
47753;BME280;2038;51.728;6.674;2023-05-16T02:25:07;101147.25;;;10.87;100.00
47753;BME280;2038;51.728;6.674;2023-05-16T02:27:34;101144.38;;;10.83;100.00
47753;BME280;2038;51.728;6.674;2023-05-16T02:30:01;101149.03;;;10.76;100.00
47753;BME280;2038;51.728;6.674;2023-05-16T02:32:27;101155.38;;;10.70;100.00
47753;BME280;2038;51.728;6.674;2023-05-16T02:34:53;101155.44;;;10.71;100.00
47753;BME280;2038;51.728;6.674;2023-05-16T02:37:19;101156.91;;;10.68;100.00
47753;BME280;2038;51.728;6.674;2023-05-16T02:39:45;101152.28;;;10.62;100.00
47753;BME280;2038;51.728;6.674;2023-05-16T02:42:12;101151.25;;;10.60;100.00
47753;BME280;2038;51.728;6.674;2023-05-16T02:44:37;101154.03;;;10.52;100.00
47753;BME280;2038;51.728;6.674;2023-05-16T02:47:04;101156.16;;;10.46;100.00
47753;BME280;2038;51.728;6.674;2023-05-16T02:49:30;101161.91;;;10.43;100.00
47753;BME280;2038;51.728;6.674;2023-05-16T02:51:56;101168.78;;;10.44;100.00
47753;BME280;2038;51.728;6.674;2023-05-16T02:54:22;101171.00;;;10.40;100.00
47753;BME280;2038;51.728;6.674;2023-05-16T02:56:48;101177.53;;;10.36;100.00
47753;BME280;2038;51.728;6.674;2023-05-16T02:59:15;101178.53;;;10.38;100.00
47753;BME280;2038;51.728;6.674;2023-05-16T03:01:41;101177.66;;;10.38;100.00
47753;BME280;2038;51.728;6.674;2023-05-16T03:04:07;101180.28;;;10.39;100.00
47753;BME280;2038;51.728;6.674;2023-05-16T03:06:33;101174.00;;;10.34;100.00
47753;BME280;2038;51.728;6.674;2023-05-16T03:09:00;101170.34;;;10.30;100.00
47753;BME280;2038;51.728;6.674;2023-05-16T03:11:26;101182.84;;;10.27;100.00
47753;BME280;2038;51.728;6.674;2023-05-16T03:13:53;101180.84;;;10.23;100.00
47753;BME280;2038;51.728;6.674;2023-05-16T03:16:20;101183.16;;;10.20;100.00
47753;BME280;2038;51.728;6.674;2023-05-16T03:18:46;101183.16;;;10.20;100.00
47753;BME280;2038;51.728;6.674;2023-05-16T03:21:12;101187.03;;;10.15;100.00
47753;BME280;2038;51.728;6.674;2023-05-16T03:23:39;101195.19;;;10.11;100.00
47753;BME280;2038;51.728;6.674;2023-05-16T03:26:05;101188.34;;;10.10;100.00
47753;BME280;2038;51.728;6.674;2023-05-16T03:28:32;101196.88;;;10.11;100.00
47753;BME280;2038;51.728;6.674;2023-05-16T03:30:58;101200.94;;;10.09;100.00
47753;BME280;2038;51.728;6.674;2023-05-16T03:33:25;101195.50;;;10.04;100.00
47753;BME280;2038;51.728;6.674;2023-05-16T03:35:51;101195.50;;;10.04;100.00
47753;BME280;2038;51.728;6.674;2023-05-16T03:38:17;101202.34;;;9.94;100.00
47753;BME280;2038;51.728;6.674;2023-05-16T03:40:43;101194.16;;;9.86;100.00
47753;BME280;2038;51.728;6.674;2023-05-16T03:43:10;101199.00;;;9.83;100.00
47753;BME280;2038;51.728;6.674;2023-05-16T03:45:36;101192.56;;;9.76;100.00
47753;BME280;2038;51.728;6.674;2023-05-16T03:48:02;101199.22;;;9.74;100.00
47753;BME280;2038;51.728;6.674;2023-05-16T03:50:28;101200.88;;;9.74;100.00
47753;BME280;2038;51.728;6.674;2023-05-16T03:52:55;101208.25;;;9.71;100.00
47753;BME280;2038;51.728;6.674;2023-05-16T03:55:22;101212.22;;;9.67;100.00
47753;BME280;2038;51.728;6.674;2023-05-16T03:57:48;101212.13;;;9.66;100.00
47753;BME280;2038;51.728;6.674;2023-05-16T04:00:16;101227.25;;;9.64;100.00
47753;BME280;2038;51.728;6.674;2023-05-16T04:02:42;101217.75;;;9.62;100.00
47753;BME280;2038;51.728;6.674;2023-05-16T04:05:10;101216.72;;;9.60;100.00
47753;BME280;2038;51.728;6.674;2023-05-16T04:07:37;101218.38;;;9.59;100.00
47753;BME280;2038;51.728;6.674;2023-05-16T04:10:04;101218.06;;;9.55;100.00
47753;BME280;2038;51.728;6.674;2023-05-16T04:12:31;101227.44;;;9.56;100.00
47753;BME280;2038;51.728;6.674;2023-05-16T04:14:57;101233.31;;;9.55;100.00
47753;BME280;2038;51.728;6.674;2023-05-16T04:17:23;101230.00;;;9.56;100.00
47753;BME280;2038;51.728;6.674;2023-05-16T04:19:50;101233.97;;;9.52;100.00
47753;BME280;2038;51.728;6.674;2023-05-16T04:22:20;101236.19;;;9.59;100.00
47753;BME280;2038;51.728;6.674;2023-05-16T04:24:52;101235.66;;;9.63;100.00
47753;BME280;2038;51.728;6.674;2023-05-16T04:27:18;101237.22;;;9.61;100.00
47753;BME280;2038;51.728;6.674;2023-05-16T04:29:48;101244.31;;;9.65;100.00
47753;BME280;2038;51.728;6.674;2023-05-16T04:32:14;101242.47;;;9.74;100.00
47753;BME280;2038;51.728;6.674;2023-05-16T04:34:42;101244.03;;;9.84;100.00
47753;BME280;2038;51.728;6.674;2023-05-16T04:37:09;101250.59;;;9.92;100.00
47753;BME280;2038;51.728;6.674;2023-05-16T04:39:35;101249.44;;;9.99;100.00
47753;BME280;2038;51.728;6.674;2023-05-16T04:42:02;101245.25;;;10.11;100.00
47753;BME280;2038;51.728;6.674;2023-05-16T04:44:29;101257.81;;;10.19;100.00
47753;BME280;2038;51.728;6.674;2023-05-16T04:46:55;101254.09;;;10.38;100.00
47753;BME280;2038;51.728;6.674;2023-05-16T04:49:22;101262.50;;;10.48;100.00
47753;BME280;2038;51.728;6.674;2023-05-16T04:51:48;101270.50;;;10.64;100.00
47753;BME280;2038;51.728;6.674;2023-05-16T04:54:15;101272.63;;;10.82;100.00
47753;BME280;2038;51.728;6.674;2023-05-16T04:56:41;101271.38;;;11.00;100.00
47753;BME280;2038;51.728;6.674;2023-05-16T04:59:07;101276.72;;;11.14;100.00
47753;BME280;2038;51.728;6.674;2023-05-16T05:01:33;101274.91;;;11.37;100.00
47753;BME280;2038;51.728;6.674;2023-05-16T05:04:00;101276.19;;;11.55;100.00
47753;BME280;2038;51.728;6.674;2023-05-16T05:06:26;101283.25;;;11.70;100.00
47753;BME280;2038;51.728;6.674;2023-05-16T05:08:53;101279.44;;;11.89;100.00
47753;BME280;2038;51.728;6.674;2023-05-16T05:11:19;101281.34;;;12.04;100.00
47753;BME280;2038;51.728;6.674;2023-05-16T05:13:46;101286.50;;;12.17;100.00
47753;BME280;2038;51.728;6.674;2023-05-16T05:16:13;101289.50;;;12.24;100.00
47753;BME280;2038;51.728;6.674;2023-05-16T05:18:39;101302.88;;;12.33;100.00
47753;BME280;2038;51.728;6.674;2023-05-16T05:21:05;101302.72;;;12.43;100.00
47753;BME280;2038;51.728;6.674;2023-05-16T05:23:31;101300.16;;;12.43;100.00
47753;BME280;2038;51.728;6.674;2023-05-16T05:25:59;101305.00;;;12.51;100.00
47753;BME280;2038;51.728;6.674;2023-05-16T05:28:27;101302.44;;;12.51;100.00
47753;BME280;2038;51.728;6.674;2023-05-16T05:30:53;101303.84;;;12.59;100.00
47753;BME280;2038;51.728;6.674;2023-05-16T05:33:19;101304.53;;;12.70;100.00
47753;BME280;2038;51.728;6.674;2023-05-16T05:35:52;101303.25;;;12.77;100.00
47753;BME280;2038;51.728;6.674;2023-05-16T05:38:19;101306.88;;;12.80;100.00
47753;BME280;2038;51.728;6.674;2023-05-16T05:40:45;101313.97;;;12.84;100.00
47753;BME280;2038;51.728;6.674;2023-05-16T05:43:11;101313.78;;;12.81;100.00
47753;BME280;2038;51.728;6.674;2023-05-16T05:45:37;101306.72;;;12.90;100.00
47753;BME280;2038;51.728;6.674;2023-05-16T05:48:04;101310.66;;;12.98;100.00
47753;BME280;2038;51.728;6.674;2023-05-16T05:50:30;101315.75;;;12.98;100.00
47753;BME280;2038;51.728;6.674;2023-05-16T05:52:57;101319.28;;;13.00;100.00
47753;BME280;2038;51.728;6.674;2023-05-16T05:55:23;101324.34;;;12.99;100.00
47753;BME280;2038;51.728;6.674;2023-05-16T05:57:49;101322.38;;;12.95;100.00
47753;BME280;2038;51.728;6.674;2023-05-16T06:00:16;101329.25;;;12.83;97.17
47753;BME280;2038;51.728;6.674;2023-05-16T06:02:42;101330.72;;;12.79;99.84
47753;BME280;2038;51.728;6.674;2023-05-16T06:05:08;101326.75;;;12.84;100.00
47753;BME280;2038;51.728;6.674;2023-05-16T06:07:35;101337.09;;;12.86;100.00
47753;BME280;2038;51.728;6.674;2023-05-16T06:10:01;101322.47;;;12.83;100.00
47753;BME280;2038;51.728;6.674;2023-05-16T06:12:29;101337.09;;;12.86;99.64
47753;BME280;2038;51.728;6.674;2023-05-16T06:14:56;101340.66;;;12.88;98.05
47753;BME280;2038;51.728;6.674;2023-05-16T06:17:22;101339.56;;;12.84;98.46
47753;BME280;2038;51.728;6.674;2023-05-16T06:19:48;101343.59;;;12.81;99.06
47753;BME280;2038;51.728;6.674;2023-05-16T06:22:14;101344.28;;;12.78;98.39
47753;BME280;2038;51.728;6.674;2023-05-16T06:24:41;101349.78;;;12.71;97.76
47753;BME280;2038;51.728;6.674;2023-05-16T06:27:07;101356.38;;;12.81;98.49
47753;BME280;2038;51.728;6.674;2023-05-16T06:29:33;101355.09;;;12.74;98.87
47753;BME280;2038;51.728;6.674;2023-05-16T06:31:59;101355.88;;;12.73;97.69
47753;BME280;2038;51.728;6.674;2023-05-16T06:34:26;101356.56;;;12.71;97.99
47753;BME280;2038;51.728;6.674;2023-05-16T06:36:55;101352.22;;;12.70;98.36
47753;BME280;2038;51.728;6.674;2023-05-16T06:39:22;101353.69;;;12.66;98.44
47753;BME280;2038;51.728;6.674;2023-05-16T06:41:48;101362.47;;;12.70;98.15
47753;BME280;2038;51.728;6.674;2023-05-16T06:44:14;101361.09;;;12.75;97.31
47753;BME280;2038;51.728;6.674;2023-05-16T06:46:40;101365.22;;;12.73;96.40
47753;BME280;2038;51.728;6.674;2023-05-16T06:49:06;101358.03;;;12.67;97.20
47753;BME280;2038;51.728;6.674;2023-05-16T06:51:33;101367.06;;;12.62;96.67
47753;BME280;2038;51.728;6.674;2023-05-16T06:53:59;101369.44;;;12.59;96.08
47753;BME280;2038;51.728;6.674;2023-05-16T06:56:25;101371.47;;;12.51;94.60
47753;BME280;2038;51.728;6.674;2023-05-16T06:58:53;101370.91;;;12.55;94.52
47753;BME280;2038;51.728;6.674;2023-05-16T07:01:19;101369.50;;;12.60;95.07
47753;BME280;2038;51.728;6.674;2023-05-16T07:03:45;101368.03;;;12.64;96.47
47753;BME280;2038;51.728;6.674;2023-05-16T07:06:12;101365.78;;;12.68;96.50
47753;BME280;2038;51.728;6.674;2023-05-16T07:08:38;101374.75;;;12.62;96.19
47753;BME280;2038;51.728;6.674;2023-05-16T07:11:04;101372.56;;;12.68;95.22
47753;BME280;2038;51.728;6.674;2023-05-16T07:13:30;101369.81;;;12.65;92.57
47753;BME280;2038;51.728;6.674;2023-05-16T07:15:56;101370.03;;;12.68;92.80
47753;BME280;2038;51.728;6.674;2023-05-16T07:18:23;101374.16;;;12.66;92.24
47753;BME280;2038;51.728;6.674;2023-05-16T07:20:49;101373.84;;;12.61;92.51
47753;BME280;2038;51.728;6.674;2023-05-16T07:23:16;101373.59;;;12.70;93.22
47753;BME280;2038;51.728;6.674;2023-05-16T07:25:42;101371.84;;;12.82;94.25
47753;BME280;2038;51.728;6.674;2023-05-16T07:28:08;101371.88;;;12.95;93.52
47753;BME280;2038;51.728;6.674;2023-05-16T07:30:35;101377.84;;;12.96;93.80
47753;BME280;2038;51.728;6.674;2023-05-16T07:33:01;101380.56;;;13.10;95.10
47753;BME280;2038;51.728;6.674;2023-05-16T07:35:27;101387.56;;;13.13;92.62
47753;BME280;2038;51.728;6.674;2023-05-16T07:37:54;101381.06;;;13.18;92.54
47753;BME280;2038;51.728;6.674;2023-05-16T07:40:20;101386.38;;;13.21;91.54
47753;BME280;2038;51.728;6.674;2023-05-16T07:42:50;101385.19;;;13.29;92.70
47753;BME280;2038;51.728;6.674;2023-05-16T07:45:16;101385.19;;;13.29;92.54
47753;BME280;2038;51.728;6.674;2023-05-16T07:47:43;101381.63;;;13.40;92.06
47753;BME280;2038;51.728;6.674;2023-05-16T07:50:10;101378.50;;;13.44;92.69
47753;BME280;2038;51.728;6.674;2023-05-16T07:52:36;101379.00;;;13.52;92.58
47753;BME280;2038;51.728;6.674;2023-05-16T07:55:03;101382.44;;;13.39;91.89
47753;BME280;2038;51.728;6.674;2023-05-16T07:57:29;101392.81;;;13.28;90.01
47753;BME280;2038;51.728;6.674;2023-05-16T07:59:55;101392.66;;;13.13;91.67
47753;BME280;2038;51.728;6.674;2023-05-16T08:02:24;101391.56;;;13.09;92.88
47753;BME280;2038;51.728;6.674;2023-05-16T08:04:55;101385.31;;;12.93;92.90
47753;BME280;2038;51.728;6.674;2023-05-16T08:07:22;101386.13;;;12.92;91.32
47753;BME280;2038;51.728;6.674;2023-05-16T08:09:49;101384.44;;;12.92;88.84
47753;BME280;2038;51.728;6.674;2023-05-16T08:12:15;101393.69;;;12.90;87.24
47753;BME280;2038;51.728;6.674;2023-05-16T08:14:41;101385.25;;;12.91;87.14
47753;BME280;2038;51.728;6.674;2023-05-16T08:17:07;101388.31;;;12.99;88.82
47753;BME280;2038;51.728;6.674;2023-05-16T08:19:34;101389.44;;;13.16;90.88
47753;BME280;2038;51.728;6.674;2023-05-16T08:22:01;101390.50;;;13.32;90.38
47753;BME280;2038;51.728;6.674;2023-05-16T08:24:27;101380.44;;;13.48;88.17
47753;BME280;2038;51.728;6.674;2023-05-16T08:26:53;101387.44;;;13.64;87.84
47753;BME280;2038;51.728;6.674;2023-05-16T08:29:20;101380.16;;;13.70;90.48
47753;BME280;2038;51.728;6.674;2023-05-16T08:31:46;101383.69;;;13.72;90.89
47753;BME280;2038;51.728;6.674;2023-05-16T08:34:13;101383.41;;;13.68;89.76
47753;BME280;2038;51.728;6.674;2023-05-16T08:36:39;101382.59;;;13.69;89.91
47753;BME280;2038;51.728;6.674;2023-05-16T08:39:06;101385.56;;;13.75;89.70
47753;BME280;2038;51.728;6.674;2023-05-16T08:41:32;101372.75;;;13.75;90.69
47753;BME280;2038;51.728;6.674;2023-05-16T08:43:59;101377.75;;;13.86;91.09
47753;BME280;2038;51.728;6.674;2023-05-16T08:46:27;101377.16;;;13.77;90.36
47753;BME280;2038;51.728;6.674;2023-05-16T08:48:58;101380.91;;;13.82;90.08
47753;BME280;2038;51.728;6.674;2023-05-16T08:51:27;101384.50;;;13.71;90.48
47753;BME280;2038;51.728;6.674;2023-05-16T08:54:03;101389.50;;;13.56;89.04
47753;BME280;2038;51.728;6.674;2023-05-16T08:56:36;101389.53;;;13.43;88.97
47753;BME280;2038;51.728;6.674;2023-05-16T08:59:04;101391.88;;;13.40;89.03
47753;BME280;2038;51.728;6.674;2023-05-16T09:01:30;101387.56;;;13.39;90.10
47753;BME280;2038;51.728;6.674;2023-05-16T09:03:58;101396.16;;;13.40;88.58
47753;BME280;2038;51.728;6.674;2023-05-16T09:06:26;101392.00;;;13.42;90.05
47753;BME280;2038;51.728;6.674;2023-05-16T09:08:55;101391.09;;;13.41;90.34
47753;BME280;2038;51.728;6.674;2023-05-16T09:11:22;101400.16;;;13.36;89.84
47753;BME280;2038;51.728;6.674;2023-05-16T09:13:49;101402.81;;;13.25;89.52
47753;BME280;2038;51.728;6.674;2023-05-16T09:16:17;101403.69;;;13.25;89.93
47753;BME280;2038;51.728;6.674;2023-05-16T09:18:53;101412.47;;;13.29;92.52
47753;BME280;2038;51.728;6.674;2023-05-16T09:21:28;101398.69;;;13.27;95.05
47753;BME280;2038;51.728;6.674;2023-05-16T09:24:03;101407.03;;;13.24;94.83
47753;BME280;2038;51.728;6.674;2023-05-16T09:26:37;101408.16;;;13.28;95.00
47753;BME280;2038;51.728;6.674;2023-05-16T09:29:13;101407.03;;;13.24;93.11
47753;BME280;2038;51.728;6.674;2023-05-16T09:31:39;101395.25;;;13.26;92.88
47753;BME280;2038;51.728;6.674;2023-05-16T09:34:09;101397.91;;;13.28;92.77
47753;BME280;2038;51.728;6.674;2023-05-16T09:36:38;101395.16;;;13.38;93.74
47753;BME280;2038;51.728;6.674;2023-05-16T09:39:06;101394.38;;;13.52;94.35
47753;BME280;2038;51.728;6.674;2023-05-16T09:41:33;101397.97;;;13.69;93.71
47753;BME280;2038;51.728;6.674;2023-05-16T09:44:04;101393.72;;;13.82;93.25
47753;BME280;2038;51.728;6.674;2023-05-16T09:46:34;101380.78;;;13.94;88.83
47753;BME280;2038;51.728;6.674;2023-05-16T09:49:02;101387.38;;;14.03;90.16
47753;BME280;2038;51.728;6.674;2023-05-16T09:51:28;101399.88;;;14.12;88.24
47753;BME280;2038;51.728;6.674;2023-05-16T09:53:54;101394.94;;;14.15;88.10
47753;BME280;2038;51.728;6.674;2023-05-16T09:56:23;101398.69;;;14.07;84.83
47753;BME280;2038;51.728;6.674;2023-05-16T09:58:51;101395.06;;;14.03;85.38
47753;BME280;2038;51.728;6.674;2023-05-16T10:01:18;101396.31;;;14.10;86.06
47753;BME280;2038;51.728;6.674;2023-05-16T10:03:45;101388.63;;;14.10;87.01
47753;BME280;2038;51.728;6.674;2023-05-16T10:06:11;101384.22;;;14.07;87.09
47753;BME280;2038;51.728;6.674;2023-05-16T10:08:42;101390.22;;;14.08;86.56
47753;BME280;2038;51.728;6.674;2023-05-16T10:11:08;101390.00;;;14.05;86.19
47753;BME280;2038;51.728;6.674;2023-05-16T10:13:36;101381.53;;;14.06;86.03
47753;BME280;2038;51.728;6.674;2023-05-16T10:16:09;101376.22;;;14.03;84.61
47753;BME280;2038;51.728;6.674;2023-05-16T10:18:38;101384.09;;;14.06;87.07
47753;BME280;2038;51.728;6.674;2023-05-16T10:21:08;101379.25;;;14.11;87.17
47753;BME280;2038;51.728;6.674;2023-05-16T10:23:41;101390.16;;;14.21;84.29
47753;BME280;2038;51.728;6.674;2023-05-16T10:26:08;101386.56;;;14.32;83.55
47753;BME280;2038;51.728;6.674;2023-05-16T10:28:40;101383.03;;;14.30;84.15
47753;BME280;2038;51.728;6.674;2023-05-16T10:31:07;101389.72;;;14.28;83.27
47753;BME280;2038;51.728;6.674;2023-05-16T10:33:35;101391.78;;;14.06;84.88
47753;BME280;2038;51.728;6.674;2023-05-16T10:36:02;101391.44;;;13.87;87.89
47753;BME280;2038;51.728;6.674;2023-05-16T10:38:30;101396.41;;;13.71;87.46
47753;BME280;2038;51.728;6.674;2023-05-16T10:40:57;101385.56;;;13.48;92.31
47753;BME280;2038;51.728;6.674;2023-05-16T10:43:30;101385.97;;;13.28;92.58
47753;BME280;2038;51.728;6.674;2023-05-16T10:46:09;101386.97;;;13.30;94.02
47753;BME280;2038;51.728;6.674;2023-05-16T10:48:40;101384.53;;;13.32;95.82
47753;BME280;2038;51.728;6.674;2023-05-16T10:53:54;101376.16;;;13.34;94.25
47753;BME280;2038;51.728;6.674;2023-05-16T10:56:25;101378.00;;;13.50;96.00
47753;BME280;2038;51.728;6.674;2023-05-16T10:58:53;101367.16;;;13.67;95.73
47753;BME280;2038;51.728;6.674;2023-05-16T11:01:34;101350.66;;;13.77;94.56
47753;BME280;2038;51.728;6.674;2023-05-16T11:04:05;101362.13;;;13.96;90.60
47753;BME280;2038;51.728;6.674;2023-05-16T11:12:01;101366.19;;;14.21;85.00
47753;BME280;2038;51.728;6.674;2023-05-16T11:17:10;101371.59;;;14.38;85.94
47753;BME280;2038;51.728;6.674;2023-05-16T11:19:49;101379.63;;;14.44;85.26
47753;BME280;2038;51.728;6.674;2023-05-16T11:22:23;101367.03;;;14.62;89.42
47753;BME280;2038;51.728;6.674;2023-05-16T11:24:50;101377.22;;;14.90;88.52
47753;BME280;2038;51.728;6.674;2023-05-16T11:27:28;101381.72;;;15.09;83.45
47753;BME280;2038;51.728;6.674;2023-05-16T11:32:30;101386.06;;;14.95;82.96
47753;BME280;2038;51.728;6.674;2023-05-16T11:34:59;101379.34;;;14.97;83.21
47753;BME280;2038;51.728;6.674;2023-05-16T11:37:27;101384.91;;;15.05;84.37
47753;BME280;2038;51.728;6.674;2023-05-16T11:40:04;101389.84;;;15.31;86.68
47753;BME280;2038;51.728;6.674;2023-05-16T11:45:10;101394.47;;;15.51;83.50
47753;BME280;2038;51.728;6.674;2023-05-16T11:47:40;101391.31;;;15.57;86.30
47753;BME280;2038;51.728;6.674;2023-05-16T11:50:16;101395.06;;;15.47;83.54
47753;BME280;2038;51.728;6.674;2023-05-16T11:52:45;101403.03;;;15.37;81.25
47753;BME280;2038;51.728;6.674;2023-05-16T11:55:14;101400.22;;;15.32;83.81
47753;BME280;2038;51.728;6.674;2023-05-16T11:57:43;101408.72;;;15.31;77.47
47753;BME280;2038;51.728;6.674;2023-05-16T12:00:20;101391.53;;;15.30;79.34
47753;BME280;2038;51.728;6.674;2023-05-16T12:02:52;101388.94;;;15.45;79.62
47753;BME280;2038;51.728;6.674;2023-05-16T12:05:21;101394.38;;;15.50;78.44
47753;BME280;2038;51.728;6.674;2023-05-16T12:07:51;101387.88;;;15.41;80.67
47753;BME280;2038;51.728;6.674;2023-05-16T12:10:19;101396.13;;;15.51;79.71
47753;BME280;2038;51.728;6.674;2023-05-16T12:12:48;101390.63;;;15.59;79.39
47753;BME280;2038;51.728;6.674;2023-05-16T12:15:17;101378.47;;;15.71;80.20
47753;BME280;2038;51.728;6.674;2023-05-16T12:17:45;101384.25;;;15.83;77.64
47753;BME280;2038;51.728;6.674;2023-05-16T12:20:12;101376.63;;;16.01;82.12
47753;BME280;2038;51.728;6.674;2023-05-16T12:22:43;101378.13;;;16.12;74.71
47753;BME280;2038;51.728;6.674;2023-05-16T12:25:29;101368.22;;;16.36;80.97
47753;BME280;2038;51.728;6.674;2023-05-16T12:27:59;101382.38;;;16.12;74.44
47753;BME280;2038;51.728;6.674;2023-05-16T12:30:29;101378.38;;;16.17;74.71
47753;BME280;2038;51.728;6.674;2023-05-16T12:33:00;101385.47;;;15.90;73.84
47753;BME280;2038;51.728;6.674;2023-05-16T12:35:37;101379.66;;;15.78;74.71
47753;BME280;2038;51.728;6.674;2023-05-16T12:38:09;101386.63;;;15.64;75.88
47753;BME280;2038;51.728;6.674;2023-05-16T12:40:38;101380.94;;;15.70;76.96
47753;BME280;2038;51.728;6.674;2023-05-16T12:43:18;101383.38;;;15.83;76.85
47753;BME280;2038;51.728;6.674;2023-05-16T12:45:54;101387.31;;;15.76;76.38
47753;BME280;2038;51.728;6.674;2023-05-16T12:48:23;101395.41;;;15.68;74.39
47753;BME280;2038;51.728;6.674;2023-05-16T12:50:56;101392.56;;;15.63;76.42
47753;BME280;2038;51.728;6.674;2023-05-16T12:53:47;101391.28;;;15.40;74.23
47753;BME280;2038;51.728;6.674;2023-05-16T12:56:15;101393.38;;;15.33;75.67
47753;BME280;2038;51.728;6.674;2023-05-16T12:58:41;101391.38;;;15.27;75.92
47753;BME280;2038;51.728;6.674;2023-05-16T13:01:08;101392.50;;;15.18;77.97
47753;BME280;2038;51.728;6.674;2023-05-16T13:03:34;101395.63;;;15.27;77.53
47753;BME280;2038;51.728;6.674;2023-05-16T13:06:01;101382.03;;;15.44;78.31
47753;BME280;2038;51.728;6.674;2023-05-16T13:08:29;101391.78;;;15.64;74.95
47753;BME280;2038;51.728;6.674;2023-05-16T13:10:55;101380.72;;;15.81;75.34
47753;BME280;2038;51.728;6.674;2023-05-16T13:13:21;101386.91;;;16.01;75.75
47753;BME280;2038;51.728;6.674;2023-05-16T13:15:47;101385.59;;;16.24;77.10
47753;BME280;2038;51.728;6.674;2023-05-16T13:18:13;101385.19;;;16.32;76.86
47753;BME280;2038;51.728;6.674;2023-05-16T13:20:39;101393.63;;;16.30;72.18
47753;BME280;2038;51.728;6.674;2023-05-16T13:23:05;101398.28;;;16.37;74.24
47753;BME280;2038;51.728;6.674;2023-05-16T13:25:32;101395.53;;;16.50;75.62
47753;BME280;2038;51.728;6.674;2023-05-16T13:27:59;101400.03;;;16.54;73.51
47753;BME280;2038;51.728;6.674;2023-05-16T13:30:25;101406.88;;;16.54;73.52
47753;BME280;2038;51.728;6.674;2023-05-16T13:32:52;101405.97;;;16.37;72.85
47753;BME280;2038;51.728;6.674;2023-05-16T13:35:18;101394.50;;;16.30;74.85